sensor_id;sensor_type;location;lat;lon;timestamp;pressure;altitude;pressure_sealevel;temperature;humidity
51299;BME280;37382;45.192;9.790;2023-07-31T00:00:59;100817.81;;;25.87;100.00
51299;BME280;37382;45.192;9.790;2023-07-31T00:03:27;100816.28;;;26.00;100.00
51299;BME280;37382;45.192;9.790;2023-07-31T00:05:54;100821.44;;;25.88;100.00
51299;BME280;37382;45.192;9.790;2023-07-31T00:08:22;100816.84;;;25.78;100.00
51299;BME280;37382;45.192;9.790;2023-07-31T00:10:51;100816.28;;;26.00;100.00
51299;BME280;37382;45.192;9.790;2023-07-31T00:13:19;100817.94;;;25.77;100.00
51299;BME280;37382;45.192;9.790;2023-07-31T00:15:48;100823.50;;;25.34;100.00
51299;BME280;37382;45.192;9.790;2023-07-31T00:18:16;100830.06;;;25.67;100.00
51299;BME280;37382;45.192;9.790;2023-07-31T00:20:43;100821.53;;;25.59;100.00
51299;BME280;37382;45.192;9.790;2023-07-31T00:23:11;100826.84;;;25.55;100.00
51299;BME280;37382;45.192;9.790;2023-07-31T00:25:39;100820.06;;;25.85;100.00
51299;BME280;37382;45.192;9.790;2023-07-31T00:28:06;100832.09;;;25.62;100.00
51299;BME280;37382;45.192;9.790;2023-07-31T00:30:34;100830.72;;;25.59;100.00
51299;BME280;37382;45.192;9.790;2023-07-31T00:33:01;100823.19;;;25.35;100.00
51299;BME280;37382;45.192;9.790;2023-07-31T00:35:29;100831.31;;;25.27;100.00
51299;BME280;37382;45.192;9.790;2023-07-31T00:37:58;100830.09;;;25.38;100.00
51299;BME280;37382;45.192;9.790;2023-07-31T00:40:26;100827.44;;;25.28;100.00
51299;BME280;37382;45.192;9.790;2023-07-31T00:42:54;100832.75;;;25.24;100.00
51299;BME280;37382;45.192;9.790;2023-07-31T00:45:23;100839.06;;;25.35;100.00
51299;BME280;37382;45.192;9.790;2023-07-31T00:47:52;100839.44;;;25.23;100.00
51299;BME280;37382;45.192;9.790;2023-07-31T00:50:20;100839.69;;;25.27;100.00
51299;BME280;37382;45.192;9.790;2023-07-31T00:52:47;100841.47;;;25.12;100.00
51299;BME280;37382;45.192;9.790;2023-07-31T00:55:14;100852.19;;;25.00;100.00
51299;BME280;37382;45.192;9.790;2023-07-31T00:57:42;100851.84;;;25.07;100.00
51299;BME280;37382;45.192;9.790;2023-07-31T01:00:12;100846.31;;;25.01;100.00
51299;BME280;37382;45.192;9.790;2023-07-31T01:02:39;100855.81;;;25.00;100.00
51299;BME280;37382;45.192;9.790;2023-07-31T01:05:07;100851.78;;;24.82;100.00
51299;BME280;37382;45.192;9.790;2023-07-31T01:10:11;100852.38;;;24.79;100.00
51299;BME280;37382;45.192;9.790;2023-07-31T01:12:44;100853.25;;;25.04;100.00
51299;BME280;37382;45.192;9.790;2023-07-31T01:15:12;100858.44;;;25.16;100.00
51299;BME280;37382;45.192;9.790;2023-07-31T01:17:42;100849.81;;;24.83;100.00
51299;BME280;37382;45.192;9.790;2023-07-31T01:20:23;100844.97;;;24.99;100.00
51299;BME280;37382;45.192;9.790;2023-07-31T01:28:19;100834.44;;;24.91;100.00
51299;BME280;37382;45.192;9.790;2023-07-31T01:30:48;100830.63;;;24.86;100.00
51299;BME280;37382;45.192;9.790;2023-07-31T01:33:16;100828.88;;;24.91;100.00
51299;BME280;37382;45.192;9.790;2023-07-31T01:35:46;100824.41;;;24.95;100.00
51299;BME280;37382;45.192;9.790;2023-07-31T01:38:20;100821.22;;;25.07;100.00
51299;BME280;37382;45.192;9.790;2023-07-31T01:40:52;100818.50;;;25.01;100.00
51299;BME280;37382;45.192;9.790;2023-07-31T01:43:20;100824.25;;;25.10;100.00
51299;BME280;37382;45.192;9.790;2023-07-31T01:45:49;100824.34;;;25.00;100.00
51299;BME280;37382;45.192;9.790;2023-07-31T01:48:17;100816.34;;;24.93;100.00
51299;BME280;37382;45.192;9.790;2023-07-31T01:50:45;100823.72;;;25.08;100.00
51299;BME280;37382;45.192;9.790;2023-07-31T01:53:13;100822.81;;;24.83;100.00
51299;BME280;37382;45.192;9.790;2023-07-31T01:55:40;100821.31;;;24.96;100.00
51299;BME280;37382;45.192;9.790;2023-07-31T01:58:09;100824.91;;;24.67;100.00
51299;BME280;37382;45.192;9.790;2023-07-31T02:00:38;100821.91;;;24.59;100.00
51299;BME280;37382;45.192;9.790;2023-07-31T02:03:05;100823.22;;;24.72;100.00
51299;BME280;37382;45.192;9.790;2023-07-31T02:05:33;100828.09;;;24.45;100.00
51299;BME280;37382;45.192;9.790;2023-07-31T02:08:00;100823.09;;;24.47;100.00
51299;BME280;37382;45.192;9.790;2023-07-31T02:10:30;100818.22;;;24.29;100.00
51299;BME280;37382;45.192;9.790;2023-07-31T02:12:59;100818.69;;;24.41;100.00
51299;BME280;37382;45.192;9.790;2023-07-31T02:15:26;100823.97;;;24.43;100.00
51299;BME280;37382;45.192;9.790;2023-07-31T02:17:54;100818.06;;;24.55;100.00
51299;BME280;37382;45.192;9.790;2023-07-31T02:20:22;100815.84;;;24.51;100.00
51299;BME280;37382;45.192;9.790;2023-07-31T02:22:50;100817.09;;;24.30;100.00
51299;BME280;37382;45.192;9.790;2023-07-31T02:25:17;100818.56;;;24.62;100.00
51299;BME280;37382;45.192;9.790;2023-07-31T02:27:46;100823.59;;;24.55;100.00
51299;BME280;37382;45.192;9.790;2023-07-31T02:30:15;100820.16;;;24.73;100.00
51299;BME280;37382;45.192;9.790;2023-07-31T02:32:44;100816.16;;;24.45;100.00
51299;BME280;37382;45.192;9.790;2023-07-31T02:35:12;100819.13;;;24.59;100.00
51299;BME280;37382;45.192;9.790;2023-07-31T02:37:42;100823.69;;;24.44;100.00
51299;BME280;37382;45.192;9.790;2023-07-31T02:40:10;100823.91;;;24.48;100.00
51299;BME280;37382;45.192;9.790;2023-07-31T02:42:37;100821.31;;;24.27;100.00
51299;BME280;37382;45.192;9.790;2023-07-31T02:45:05;100823.31;;;24.11;100.00
51299;BME280;37382;45.192;9.790;2023-07-31T02:47:33;100821.66;;;24.15;100.00
51299;BME280;37382;45.192;9.790;2023-07-31T02:50:04;100821.13;;;24.13;100.00
51299;BME280;37382;45.192;9.790;2023-07-31T02:52:32;100832.44;;;24.22;100.00
51299;BME280;37382;45.192;9.790;2023-07-31T02:55:00;100817.13;;;24.25;100.00
51299;BME280;37382;45.192;9.790;2023-07-31T02:57:28;100811.63;;;24.20;100.00
51299;BME280;37382;45.192;9.790;2023-07-31T02:59:55;100820.09;;;24.39;100.00
51299;BME280;37382;45.192;9.790;2023-07-31T03:02:23;100813.72;;;24.38;100.00
51299;BME280;37382;45.192;9.790;2023-07-31T03:04:51;100812.09;;;24.27;100.00
51299;BME280;37382;45.192;9.790;2023-07-31T03:07:18;100814.66;;;24.23;100.00
51299;BME280;37382;45.192;9.790;2023-07-31T03:09:46;100823.31;;;24.11;100.00
51299;BME280;37382;45.192;9.790;2023-07-31T03:12:14;100820.25;;;24.18;100.00
51299;BME280;37382;45.192;9.790;2023-07-31T03:14:42;100823.91;;;24.08;100.00
51299;BME280;37382;45.192;9.790;2023-07-31T03:17:09;100819.91;;;24.25;100.00
51299;BME280;37382;45.192;9.790;2023-07-31T03:19:37;100819.41;;;24.18;100.00
51299;BME280;37382;45.192;9.790;2023-07-31T03:22:05;100809.59;;;24.30;100.00
51299;BME280;37382;45.192;9.790;2023-07-31T03:24:32;100821.34;;;24.17;100.00
51299;BME280;37382;45.192;9.790;2023-07-31T03:27:00;100811.63;;;24.20;100.00
51299;BME280;37382;45.192;9.790;2023-07-31T03:29:27;100818.81;;;24.21;100.00
51299;BME280;37382;45.192;9.790;2023-07-31T03:31:55;100825.81;;;24.18;100.00
51299;BME280;37382;45.192;9.790;2023-07-31T03:34:23;100819.19;;;24.04;100.00
51299;BME280;37382;45.192;9.790;2023-07-31T03:36:50;100821.50;;;24.36;100.00
51299;BME280;37382;45.192;9.790;2023-07-31T03:39:18;100826.97;;;24.07;100.00
51299;BME280;37382;45.192;9.790;2023-07-31T03:41:46;100826.06;;;24.22;100.00
51299;BME280;37382;45.192;9.790;2023-07-31T03:44:13;100820.50;;;24.22;100.00
51299;BME280;37382;45.192;9.790;2023-07-31T03:46:41;100828.84;;;24.22;100.00
51299;BME280;37382;45.192;9.790;2023-07-31T03:49:09;100819.09;;;24.24;100.00
51299;BME280;37382;45.192;9.790;2023-07-31T03:51:36;100829.50;;;24.03;100.00
51299;BME280;37382;45.192;9.790;2023-07-31T03:54:04;100831.13;;;24.09;100.00
51299;BME280;37382;45.192;9.790;2023-07-31T03:56:32;100836.94;;;24.18;100.00
51299;BME280;37382;45.192;9.790;2023-07-31T03:59:02;100837.22;;;24.17;100.00
51299;BME280;37382;45.192;9.790;2023-07-31T04:01:30;100827.53;;;24.09;100.00
51299;BME280;37382;45.192;9.790;2023-07-31T04:03:57;100833.38;;;24.02;100.00
51299;BME280;37382;45.192;9.790;2023-07-31T04:06:25;100830.06;;;24.00;100.00
51299;BME280;37382;45.192;9.790;2023-07-31T04:08:53;100837.69;;;24.24;100.00
51299;BME280;37382;45.192;9.790;2023-07-31T04:11:20;100842.97;;;24.30;100.00
51299;BME280;37382;45.192;9.790;2023-07-31T04:13:48;100836.81;;;24.33;100.00
51299;BME280;37382;45.192;9.790;2023-07-31T04:16:15;100838.31;;;24.15;100.00
51299;BME280;37382;45.192;9.790;2023-07-31T04:18:43;100845.00;;;24.14;100.00
51299;BME280;37382;45.192;9.790;2023-07-31T04:21:12;100839.41;;;24.20;100.00
51299;BME280;37382;45.192;9.790;2023-07-31T04:23:40;100841.19;;;24.45;100.00
51299;BME280;37382;45.192;9.790;2023-07-31T04:26:07;100829.88;;;24.31;100.00
51299;BME280;37382;45.192;9.790;2023-07-31T04:28:35;100824.91;;;24.28;100.00
51299;BME280;37382;45.192;9.790;2023-07-31T04:31:03;100831.50;;;24.37;100.00
51299;BME280;37382;45.192;9.790;2023-07-31T04:33:31;100835.34;;;24.46;100.00
51299;BME280;37382;45.192;9.790;2023-07-31T04:35:59;100837.97;;;24.27;100.00
51299;BME280;37382;45.192;9.790;2023-07-31T04:38:26;100833.19;;;24.38;100.00
51299;BME280;37382;45.192;9.790;2023-07-31T04:40:54;100846.16;;;24.48;100.00
51299;BME280;37382;45.192;9.790;2023-07-31T04:43:21;100847.50;;;24.56;100.00
51299;BME280;37382;45.192;9.790;2023-07-31T04:45:49;100850.88;;;24.58;100.00
51299;BME280;37382;45.192;9.790;2023-07-31T04:48:17;100845.00;;;24.54;100.00
51299;BME280;37382;45.192;9.790;2023-07-31T04:50:45;100842.00;;;24.45;100.00
51299;BME280;37382;45.192;9.790;2023-07-31T04:53:12;100846.66;;;24.60;100.00
51299;BME280;37382;45.192;9.790;2023-07-31T04:55:40;100854.50;;;24.53;100.00
51299;BME280;37382;45.192;9.790;2023-07-31T04:58:08;100855.75;;;24.71;100.00
51299;BME280;37382;45.192;9.790;2023-07-31T05:00:35;100854.66;;;24.72;100.00
51299;BME280;37382;45.192;9.790;2023-07-31T05:03:03;100855.66;;;24.86;100.00
51299;BME280;37382;45.192;9.790;2023-07-31T05:05:32;100856.91;;;24.65;100.00
51299;BME280;37382;45.192;9.790;2023-07-31T05:08:00;100859.47;;;24.61;100.00
51299;BME280;37382;45.192;9.790;2023-07-31T05:10:28;100854.19;;;24.60;100.00
51299;BME280;37382;45.192;9.790;2023-07-31T05:12:56;100863.78;;;24.78;100.00
51299;BME280;37382;45.192;9.790;2023-07-31T05:15:23;100865.78;;;24.72;100.00
51299;BME280;37382;45.192;9.790;2023-07-31T05:17:51;100864.72;;;24.63;100.00
51299;BME280;37382;45.192;9.790;2023-07-31T05:20:19;100874.41;;;24.71;100.00
51299;BME280;37382;45.192;9.790;2023-07-31T05:22:47;100875.81;;;25.02;100.00
51299;BME280;37382;45.192;9.790;2023-07-31T05:25:14;100882.25;;;24.98;100.00
51299;BME280;37382;45.192;9.790;2023-07-31T05:27:42;100880.44;;;24.83;100.00
51299;BME280;37382;45.192;9.790;2023-07-31T05:30:09;100882.25;;;24.98;100.00
51299;BME280;37382;45.192;9.790;2023-07-31T05:32:37;100890.31;;;24.99;100.00
51299;BME280;37382;45.192;9.790;2023-07-31T05:35:05;100887.91;;;24.88;100.00
51299;BME280;37382;45.192;9.790;2023-07-31T05:37:32;100897.41;;;24.81;100.00
51299;BME280;37382;45.192;9.790;2023-07-31T05:40:00;100895.91;;;25.34;100.00
51299;BME280;37382;45.192;9.790;2023-07-31T05:42:28;100899.94;;;25.12;100.00
51299;BME280;37382;45.192;9.790;2023-07-31T05:44:56;100914.25;;;25.35;100.00
51299;BME280;37382;45.192;9.790;2023-07-31T05:47:23;100912.38;;;25.54;100.00
51299;BME280;37382;45.192;9.790;2023-07-31T05:49:52;100916.06;;;25.50;100.00
51299;BME280;37382;45.192;9.790;2023-07-31T05:52:19;100912.28;;;25.65;100.00
51299;BME280;37382;45.192;9.790;2023-07-31T05:54:47;100911.69;;;25.92;100.00
51299;BME280;37382;45.192;9.790;2023-07-31T05:57:14;100919.66;;;26.04;100.00
51299;BME280;37382;45.192;9.790;2023-07-31T05:59:42;100921.91;;;26.02;100.00
51299;BME280;37382;45.192;9.790;2023-07-31T06:02:10;100911.34;;;26.42;100.00
51299;BME280;37382;45.192;9.790;2023-07-31T06:04:38;100908.34;;;26.57;100.00
51299;BME280;37382;45.192;9.790;2023-07-31T06:07:06;100903.97;;;26.70;100.00
51299;BME280;37382;45.192;9.790;2023-07-31T06:09:34;100906.00;;;26.84;100.00
51299;BME280;37382;45.192;9.790;2023-07-31T06:12:02;100906.06;;;26.59;100.00
51299;BME280;37382;45.192;9.790;2023-07-31T06:14:30;100906.59;;;26.61;100.00
51299;BME280;37382;45.192;9.790;2023-07-31T06:16:58;100913.09;;;26.76;100.00
51299;BME280;37382;45.192;9.790;2023-07-31T06:19:26;100926.09;;;26.67;100.00
51299;BME280;37382;45.192;9.790;2023-07-31T06:21:53;100915.91;;;26.76;100.00
51299;BME280;37382;45.192;9.790;2023-07-31T06:24:21;100911.94;;;26.96;100.00
51299;BME280;37382;45.192;9.790;2023-07-31T06:26:49;100912.84;;;27.10;100.00
51299;BME280;37382;45.192;9.790;2023-07-31T06:29:17;100906.94;;;27.45;100.00
51299;BME280;37382;45.192;9.790;2023-07-31T06:31:46;100906.53;;;27.51;100.00
51299;BME280;37382;45.192;9.790;2023-07-31T06:34:14;100906.00;;;27.36;100.00
51299;BME280;37382;45.192;9.790;2023-07-31T06:36:41;100911.91;;;27.48;100.00
51299;BME280;37382;45.192;9.790;2023-07-31T06:39:09;100908.09;;;27.58;100.00
51299;BME280;37382;45.192;9.790;2023-07-31T06:41:38;100920.22;;;27.53;100.00
51299;BME280;37382;45.192;9.790;2023-07-31T06:44:07;100917.63;;;27.57;100.00
51299;BME280;37382;45.192;9.790;2023-07-31T06:46:35;100925.78;;;27.53;100.00
51299;BME280;37382;45.192;9.790;2023-07-31T06:49:02;100936.06;;;27.72;100.00
51299;BME280;37382;45.192;9.790;2023-07-31T06:51:30;100941.28;;;27.45;100.00
51299;BME280;37382;45.192;9.790;2023-07-31T06:53:58;100941.41;;;27.54;100.00
51299;BME280;37382;45.192;9.790;2023-07-31T06:56:27;100945.25;;;27.72;100.00
51299;BME280;37382;45.192;9.790;2023-07-31T06:58:55;100947.94;;;27.63;100.00
51299;BME280;37382;45.192;9.790;2023-07-31T07:01:23;100936.78;;;27.77;100.00
51299;BME280;37382;45.192;9.790;2023-07-31T07:03:50;100945.38;;;27.67;100.00
51299;BME280;37382;45.192;9.790;2023-07-31T07:06:18;100939.56;;;27.63;100.00
51299;BME280;37382;45.192;9.790;2023-07-31T07:08:46;100939.84;;;27.48;100.00
51299;BME280;37382;45.192;9.790;2023-07-31T07:11:14;100937.06;;;27.62;100.00
51299;BME280;37382;45.192;9.790;2023-07-31T07:13:42;100930.94;;;27.46;100.00
51299;BME280;37382;45.192;9.790;2023-07-31T07:16:10;100929.28;;;27.45;100.00
51299;BME280;37382;45.192;9.790;2023-07-31T07:18:38;100936.59;;;27.41;100.00
51299;BME280;37382;45.192;9.790;2023-07-31T07:21:20;100936.56;;;27.60;100.00
51299;BME280;37382;45.192;9.790;2023-07-31T07:23:48;100933.28;;;27.72;100.00
51299;BME280;37382;45.192;9.790;2023-07-31T07:26:15;100928.44;;;28.05;100.00
51299;BME280;37382;45.192;9.790;2023-07-31T07:28:43;100928.94;;;28.07;100.00
51299;BME280;37382;45.192;9.790;2023-07-31T07:31:11;100927.69;;;28.13;100.00
51299;BME280;37382;45.192;9.790;2023-07-31T07:33:38;100940.94;;;28.35;100.00
51299;BME280;37382;45.192;9.790;2023-07-31T07:36:06;100937.44;;;28.02;100.00
51299;BME280;37382;45.192;9.790;2023-07-31T07:38:36;100944.69;;;28.03;100.00
51299;BME280;37382;45.192;9.790;2023-07-31T07:41:05;100939.19;;;28.26;100.00
51299;BME280;37382;45.192;9.790;2023-07-31T07:43:33;100931.63;;;28.26;100.00
51299;BME280;37382;45.192;9.790;2023-07-31T07:46:00;100920.44;;;27.98;100.00
51299;BME280;37382;45.192;9.790;2023-07-31T07:48:28;100913.59;;;27.91;100.00
51299;BME280;37382;45.192;9.790;2023-07-31T07:50:56;100919.81;;;27.87;100.00
51299;BME280;37382;45.192;9.790;2023-07-31T07:53:23;100923.44;;;27.88;100.00
51299;BME280;37382;45.192;9.790;2023-07-31T07:55:50;100921.25;;;28.27;100.00
51299;BME280;37382;45.192;9.790;2023-07-31T07:58:18;100919.03;;;28.51;100.00
51299;BME280;37382;45.192;9.790;2023-07-31T08:00:50;100918.47;;;28.77;100.00
51299;BME280;37382;45.192;9.790;2023-07-31T08:03:19;100914.25;;;28.66;100.00
51299;BME280;37382;45.192;9.790;2023-07-31T08:05:47;100915.06;;;28.16;100.00
51299;BME280;37382;45.192;9.790;2023-07-31T08:08:15;100925.00;;;28.22;100.00
51299;BME280;37382;45.192;9.790;2023-07-31T08:10:43;100923.97;;;28.04;100.00
51299;BME280;37382;45.192;9.790;2023-07-31T08:13:11;100923.53;;;28.11;100.00
51299;BME280;37382;45.192;9.790;2023-07-31T08:15:42;100926.31;;;28.38;100.00
51299;BME280;37382;45.192;9.790;2023-07-31T08:18:10;100923.34;;;28.07;100.00
51299;BME280;37382;45.192;9.790;2023-07-31T08:20:41;100929.03;;;28.16;100.00
51299;BME280;37382;45.192;9.790;2023-07-31T08:23:09;100920.19;;;28.36;100.00
51299;BME280;37382;45.192;9.790;2023-07-31T08:25:37;100922.13;;;28.64;100.00
51299;BME280;37382;45.192;9.790;2023-07-31T08:28:06;100925.13;;;28.53;100.00
51299;BME280;37382;45.192;9.790;2023-07-31T08:30:33;100920.13;;;28.78;100.00
51299;BME280;37382;45.192;9.790;2023-07-31T08:33:01;100920.75;;;28.75;100.00
51299;BME280;37382;45.192;9.790;2023-07-31T08:35:29;100930.06;;;28.84;100.00
51299;BME280;37382;45.192;9.790;2023-07-31T08:37:57;100922.72;;;28.97;100.00
51299;BME280;37382;45.192;9.790;2023-07-31T08:40:25;100924.75;;;28.60;100.00
51299;BME280;37382;45.192;9.790;2023-07-31T08:42:55;100920.50;;;28.85;100.00
51299;BME280;37382;45.192;9.790;2023-07-31T08:45:23;100920.69;;;29.12;100.00
51299;BME280;37382;45.192;9.790;2023-07-31T08:47:51;100917.38;;;29.09;100.00
51299;BME280;37382;45.192;9.790;2023-07-31T08:50:20;100908.28;;;29.26;100.00
51299;BME280;37382;45.192;9.790;2023-07-31T08:52:50;100910.75;;;29.28;100.00
51299;BME280;37382;45.192;9.790;2023-07-31T08:55:18;100902.03;;;29.30;100.00
51299;BME280;37382;45.192;9.790;2023-07-31T08:57:51;100907.78;;;29.56;100.00
51299;BME280;37382;45.192;9.790;2023-07-31T09:00:20;100915.84;;;29.49;100.00
51299;BME280;37382;45.192;9.790;2023-07-31T09:03:02;100913.41;;;29.56;100.00
51299;BME280;37382;45.192;9.790;2023-07-31T09:05:31;100902.41;;;29.68;100.00
51299;BME280;37382;45.192;9.790;2023-07-31T09:08:01;100903.09;;;29.74;100.00
51299;BME280;37382;45.192;9.790;2023-07-31T09:10:29;100900.25;;;29.65;100.00
51299;BME280;37382;45.192;9.790;2023-07-31T09:12:57;100896.78;;;29.68;100.00
51299;BME280;37382;45.192;9.790;2023-07-31T09:15:25;100894.81;;;29.69;100.00
51299;BME280;37382;45.192;9.790;2023-07-31T09:18:05;100895.94;;;29.68;100.00
51299;BME280;37382;45.192;9.790;2023-07-31T09:20:33;100893.84;;;29.73;100.00
51299;BME280;37382;45.192;9.790;2023-07-31T09:23:12;100889.56;;;29.76;100.00
51299;BME280;37382;45.192;9.790;2023-07-31T09:25:43;100900.56;;;29.63;100.00
51299;BME280;37382;45.192;9.790;2023-07-31T09:28:11;100894.63;;;30.05;100.00
51299;BME280;37382;45.192;9.790;2023-07-31T09:30:48;100895.09;;;29.90;100.00
51299;BME280;37382;45.192;9.790;2023-07-31T09:33:17;100893.63;;;29.92;100.00
51299;BME280;37382;45.192;9.790;2023-07-31T09:35:47;100903.25;;;29.77;100.00
51299;BME280;37382;45.192;9.790;2023-07-31T09:38:16;100898.47;;;29.38;100.00
51299;BME280;37382;45.192;9.790;2023-07-31T09:40:48;100894.59;;;29.25;100.00
51299;BME280;37382;45.192;9.790;2023-07-31T09:43:20;100899.84;;;29.80;100.00
51299;BME280;37382;45.192;9.790;2023-07-31T09:45:54;100898.03;;;29.85;100.00
51299;BME280;37382;45.192;9.790;2023-07-31T09:48:23;100898.25;;;29.97;100.00
51299;BME280;37382;45.192;9.790;2023-07-31T09:50:54;100901.72;;;30.11;100.00
51299;BME280;37382;45.192;9.790;2023-07-31T09:53:28;100899.19;;;30.50;100.00
51299;BME280;37382;45.192;9.790;2023-07-31T09:56:00;100899.34;;;30.54;100.00
51299;BME280;37382;45.192;9.790;2023-07-31T09:58:29;100901.78;;;30.29;100.00
51299;BME280;37382;45.192;9.790;2023-07-31T10:00:59;100894.22;;;30.64;100.00
51299;BME280;37382;45.192;9.790;2023-07-31T10:03:29;100899.34;;;30.80;100.00
51299;BME280;37382;45.192;9.790;2023-07-31T10:06:00;100891.09;;;30.66;100.00
51299;BME280;37382;45.192;9.790;2023-07-31T10:08:32;100888.06;;;31.24;100.00
51299;BME280;37382;45.192;9.790;2023-07-31T10:11:02;100883.16;;;31.59;100.00
51299;BME280;37382;45.192;9.790;2023-07-31T10:13:32;100881.47;;;31.19;100.00
51299;BME280;37382;45.192;9.790;2023-07-31T10:16:00;100879.00;;;31.09;100.00
51299;BME280;37382;45.192;9.790;2023-07-31T10:18:29;100874.94;;;31.36;100.00
51299;BME280;37382;45.192;9.790;2023-07-31T10:20:57;100877.88;;;31.49;100.00
51299;BME280;37382;45.192;9.790;2023-07-31T10:23:25;100874.72;;;31.50;100.00
51299;BME280;37382;45.192;9.790;2023-07-31T10:25:53;100868.78;;;31.61;100.00
51299;BME280;37382;45.192;9.790;2023-07-31T10:28:21;100865.94;;;31.52;100.00
51299;BME280;37382;45.192;9.790;2023-07-31T10:30:50;100863.22;;;31.34;100.00
51299;BME280;37382;45.192;9.790;2023-07-31T10:33:18;100873.44;;;31.48;100.00
51299;BME280;37382;45.192;9.790;2023-07-31T10:35:47;100872.78;;;31.42;100.00
51299;BME280;37382;45.192;9.790;2023-07-31T10:38:15;100866.81;;;31.44;100.00
51299;BME280;37382;45.192;9.790;2023-07-31T10:40:43;100862.31;;;31.51;100.00
51299;BME280;37382;45.192;9.790;2023-07-31T10:43:24;100865.81;;;31.48;100.00
51299;BME280;37382;45.192;9.790;2023-07-31T10:45:55;100865.31;;;31.55;100.00
51299;BME280;37382;45.192;9.790;2023-07-31T10:48:23;100866.81;;;31.52;100.00
51299;BME280;37382;45.192;9.790;2023-07-31T10:50:54;100856.47;;;31.74;100.00
51299;BME280;37382;45.192;9.790;2023-07-31T10:53:32;100860.63;;;31.98;100.00
51299;BME280;37382;45.192;9.790;2023-07-31T10:56:04;100856.78;;;32.32;100.00
51299;BME280;37382;45.192;9.790;2023-07-31T10:58:33;100854.50;;;32.47;100.00
51299;BME280;37382;45.192;9.790;2023-07-31T11:01:03;100850.66;;;32.30;100.00
51299;BME280;37382;45.192;9.790;2023-07-31T11:03:49;100856.31;;;32.30;100.00
51299;BME280;37382;45.192;9.790;2023-07-31T11:06:19;100851.06;;;31.90;100.00
51299;BME280;37382;45.192;9.790;2023-07-31T11:08:50;100852.59;;;31.87;100.00
51299;BME280;37382;45.192;9.790;2023-07-31T11:11:19;100857.19;;;31.92;100.00
51299;BME280;37382;45.192;9.790;2023-07-31T11:13:51;100851.25;;;32.36;100.00
51299;BME280;37382;45.192;9.790;2023-07-31T11:16:22;100841.38;;;33.05;100.00
51299;BME280;37382;45.192;9.790;2023-07-31T11:18:50;100842.31;;;33.09;100.00
51299;BME280;37382;45.192;9.790;2023-07-31T11:21:24;100842.84;;;32.90;100.00
51299;BME280;37382;45.192;9.790;2023-07-31T11:23:56;100834.28;;;33.32;100.00
51299;BME280;37382;45.192;9.790;2023-07-31T11:26:28;100830.69;;;32.98;100.00
51299;BME280;37382;45.192;9.790;2023-07-31T11:28:55;100836.78;;;33.01;100.00
51299;BME280;37382;45.192;9.790;2023-07-31T11:31:23;100834.94;;;33.17;99.91
51299;BME280;37382;45.192;9.790;2023-07-31T11:33:50;100825.72;;;33.66;96.95
51299;BME280;37382;45.192;9.790;2023-07-31T11:36:20;100819.47;;;33.85;98.15
51299;BME280;37382;45.192;9.790;2023-07-31T11:38:48;100817.38;;;33.57;97.70
51299;BME280;37382;45.192;9.790;2023-07-31T11:41:16;100812.91;;;33.93;96.46
51299;BME280;37382;45.192;9.790;2023-07-31T11:43:46;100805.88;;;33.75;93.67
51299;BME280;37382;45.192;9.790;2023-07-31T11:46:15;100808.25;;;34.26;90.56
51299;BME280;37382;45.192;9.790;2023-07-31T11:48:43;100805.13;;;34.02;89.12
51299;BME280;37382;45.192;9.790;2023-07-31T11:51:12;100805.78;;;34.12;88.96
51299;BME280;37382;45.192;9.790;2023-07-31T11:53:44;100794.38;;;34.20;84.49
51299;BME280;37382;45.192;9.790;2023-07-31T11:56:14;100788.59;;;33.76;88.10
51299;BME280;37382;45.192;9.790;2023-07-31T11:58:46;100790.56;;;33.51;90.07
51299;BME280;37382;45.192;9.790;2023-07-31T12:01:15;100789.16;;;33.45;91.16
51299;BME280;37382;45.192;9.790;2023-07-31T12:03:46;100779.66;;;33.49;89.56
51299;BME280;37382;45.192;9.790;2023-07-31T12:06:14;100783.16;;;33.59;90.68
51299;BME280;37382;45.192;9.790;2023-07-31T12:08:42;100774.56;;;33.67;90.22
51299;BME280;37382;45.192;9.790;2023-07-31T12:11:10;100770.47;;;34.18;88.83
51299;BME280;37382;45.192;9.790;2023-07-31T12:13:38;100761.66;;;34.76;86.75
51299;BME280;37382;45.192;9.790;2023-07-31T12:16:06;100761.81;;;34.67;83.76
51299;BME280;37382;45.192;9.790;2023-07-31T12:18:36;100765.66;;;34.75;82.10
51299;BME280;37382;45.192;9.790;2023-07-31T12:21:06;100766.25;;;34.97;78.62
51299;BME280;37382;45.192;9.790;2023-07-31T12:23:35;100759.81;;;34.68;80.05
51299;BME280;37382;45.192;9.790;2023-07-31T12:28:44;100755.66;;;34.78;79.95
51299;BME280;37382;45.192;9.790;2023-07-31T12:31:17;100753.59;;;34.62;78.04
51299;BME280;37382;45.192;9.790;2023-07-31T12:33:46;100761.03;;;34.38;79.94
51299;BME280;37382;45.192;9.790;2023-07-31T12:36:17;100740.34;;;34.50;77.87
51299;BME280;37382;45.192;9.790;2023-07-31T12:38:45;100737.09;;;34.48;77.70
51299;BME280;37382;45.192;9.790;2023-07-31T12:41:13;100731.50;;;34.96;76.20
51299;BME280;37382;45.192;9.790;2023-07-31T12:43:43;100731.69;;;35.19;74.81
51299;BME280;37382;45.192;9.790;2023-07-31T12:46:11;100729.34;;;35.57;75.01
51299;BME280;37382;45.192;9.790;2023-07-31T12:48:39;100728.66;;;35.79;70.62
51299;BME280;37382;45.192;9.790;2023-07-31T12:51:08;100721.31;;;35.94;71.02
51299;BME280;37382;45.192;9.790;2023-07-31T12:53:36;100716.72;;;35.35;73.45
51299;BME280;37382;45.192;9.790;2023-07-31T12:56:04;100713.88;;;35.86;71.93
51299;BME280;37382;45.192;9.790;2023-07-31T12:58:32;100713.34;;;35.65;70.84